createdAt,value
2024-01-01T00:00:48.680Z,53.43
2024-01-01T00:03:52.445Z,52.53
2024-01-01T00:06:54.446Z,43.27
2024-01-01T00:09:56.257Z,37.47
2024-01-01T00:12:58.168Z,35.37
2024-01-01T00:16:00.028Z,28.80
2024-01-01T00:19:01.928Z,28.37
2024-01-01T00:22:04.648Z,16.57
2024-01-01T00:25:09.454Z,16.40
2024-01-01T00:28:11.491Z,13.63
2024-01-01T00:31:13.436Z,10.03
2024-01-01T00:34:15.207Z,10.73
2024-01-01T00:37:17.016Z,13.97
2024-01-01T00:40:18.898Z,13.33
2024-01-01T00:43:20.686Z,11.47
2024-01-01T00:46:22.469Z,16.67
2024-01-01T00:49:24.240Z,21.50
2024-01-01T00:52:26.168Z,11.70
2024-01-01T00:55:27.923Z,8.53
2024-01-01T00:58:30.392Z,9.33
2024-01-01T01:01:32.750Z,8.37
2024-01-01T01:04:36.024Z,8.50
2024-01-01T01:07:38.121Z,8.80
2024-01-01T01:10:41.392Z,10.37
2024-01-01T01:13:43.243Z,10.53
2024-01-01T01:16:45.188Z,10.53
2024-01-01T01:19:47.053Z,11.57
2024-01-01T01:22:49.008Z,11.70
2024-01-01T01:25:51.913Z,12.07
2024-01-01T01:28:53.722Z,11.93
2024-01-01T01:31:55.608Z,11.93
2024-01-01T01:34:57.448Z,12.53
2024-01-01T01:37:59.270Z,11.27
2024-01-01T01:41:01.059Z,10.67
2024-01-01T01:44:02.894Z,11.33
2024-01-01T01:47:05.381Z,11.13
2024-01-01T01:50:08.301Z,10.27
2024-01-01T01:53:10.457Z,10.87
2024-01-01T01:56:15.453Z,9.63
2024-01-01T01:59:17.669Z,10.27
2024-01-01T02:02:23.932Z,10.50
2024-01-01T02:05:25.847Z,9.73
2024-01-01T02:08:27.858Z,9.20
2024-01-01T02:11:29.654Z,9.50
2024-01-01T02:14:35.739Z,9.20
2024-01-01T02:17:37.550Z,8.77
2024-01-01T02:20:39.366Z,8.80
2024-01-01T02:23:41.172Z,8.33
2024-01-01T02:26:44.430Z,8.63
2024-01-01T02:29:46.181Z,8.23
2024-01-01T02:32:48.001Z,8.67
2024-01-01T02:35:49.770Z,8.20
2024-01-01T02:38:51.679Z,7.90
2024-01-01T02:41:53.407Z,7.70
2024-01-01T02:44:55.171Z,7.47
2024-01-01T02:47:58.665Z,7.13
2024-01-01T02:51:00.473Z,6.97
2024-01-01T02:54:02.302Z,7.27
2024-01-01T02:57:04.444Z,6.53
2024-01-01T03:00:10.199Z,6.60
2024-01-01T03:03:12.262Z,5.80
2024-01-01T03:06:17.469Z,6.53
2024-01-01T03:09:19.281Z,6.67
2024-01-01T03:12:21.062Z,6.37
2024-01-01T03:15:22.796Z,6.60
2024-01-01T03:18:25.629Z,6.70
2024-01-01T03:21:27.423Z,7.07
2024-01-01T03:24:29.195Z,6.83
2024-01-01T03:27:31.322Z,7.07
2024-01-01T03:30:33.063Z,7.23
2024-01-01T03:33:35.433Z,7.13
2024-01-01T03:36:38.592Z,7.27
2024-01-01T03:39:40.409Z,7.80
2024-01-01T03:42:42.228Z,7.50
2024-01-01T03:45:44.089Z,7.93
2024-01-01T03:48:45.972Z,7.97
2024-01-01T03:51:47.925Z,8.23
2024-01-01T03:54:49.646Z,8.40
2024-01-01T03:57:51.418Z,8.90
2024-01-01T04:00:53.208Z,9.00
2024-01-01T04:04:00.524Z,9.63
2024-01-01T04:07:02.232Z,8.80
2024-01-01T04:10:07.744Z,9.37
2024-01-01T04:13:09.617Z,9.63
2024-01-01T04:16:11.351Z,9.33
2024-01-01T04:19:13.130Z,10.17
2024-01-01T04:22:16.624Z,9.33
2024-01-01T04:25:19.876Z,8.90
2024-01-01T04:28:21.681Z,8.70
2024-01-01T04:31:23.656Z,8.67
2024-01-01T04:34:25.469Z,9.03
2024-01-01T04:37:27.424Z,9.13
2024-01-01T04:40:29.234Z,9.00
2024-01-01T04:43:31.039Z,9.67
2024-01-01T04:46:32.891Z,9.13
2024-01-01T04:49:36.320Z,9.53
2024-01-01T04:52:38.268Z,10.13
2024-01-01T04:55:40.153Z,9.83
2024-01-01T04:58:41.917Z,9.77
2024-01-01T05:01:43.809Z,10.33
2024-01-01T05:04:45.908Z,9.87
2024-01-01T05:07:49.796Z,10.20
2024-01-01T05:10:51.548Z,10.17
2024-01-01T05:13:53.351Z,10.17
2024-01-01T05:16:56.191Z,9.90
2024-01-01T05:19:58.071Z,10.77
2024-01-01T05:23:01.030Z,10.23
2024-01-01T05:26:03.027Z,10.70
2024-01-01T05:29:04.813Z,9.97
2024-01-01T05:32:07.519Z,9.20
2024-01-01T05:35:09.573Z,9.50
2024-01-01T05:38:11.559Z,10.47
2024-01-01T05:41:13.500Z,10.40
2024-01-01T05:44:15.472Z,11.10
2024-01-01T05:47:17.382Z,11.47
2024-01-01T05:50:19.263Z,12.33
2024-01-01T05:53:21.217Z,11.97
2024-01-01T05:56:23.059Z,11.30
2024-01-01T05:59:24.802Z,11.30
2024-01-01T06:02:27.076Z,11.83
2024-01-01T06:05:28.892Z,11.63
2024-01-01T06:08:31.195Z,11.63
2024-01-01T06:11:33.752Z,10.67
2024-01-01T06:14:35.529Z,10.20
2024-01-01T06:17:37.391Z,10.07
2024-01-01T06:20:39.176Z,10.10
2024-01-01T06:23:45.386Z,9.43
2024-01-01T06:26:47.339Z,9.70
2024-01-01T06:29:49.448Z,8.37
2024-01-01T06:32:51.275Z,8.73
2024-01-01T06:35:53.008Z,8.23
2024-01-01T06:38:54.754Z,7.00
2024-01-01T06:41:56.486Z,7.33
2024-01-01T06:45:01.728Z,7.30
2024-01-01T06:48:03.924Z,6.30
2024-01-01T06:51:12.398Z,5.90
2024-01-01T06:54:14.248Z,6.60
2024-01-01T06:57:16.038Z,5.90
2024-01-01T07:00:18.496Z,5.60
2024-01-01T07:03:20.449Z,6.23
2024-01-01T07:06:22.328Z,5.60
2024-01-01T07:09:24.164Z,5.57
2024-01-01T07:15:43.602Z,5.17
2024-01-01T07:18:45.498Z,5.17
2024-01-01T07:21:48.672Z,4.87
2024-01-01T07:24:50.545Z,5.00
2024-01-01T07:27:52.352Z,5.00
2024-01-01T07:30:54.163Z,5.60
2024-01-01T07:33:56.003Z,5.03
2024-01-01T07:36:59.138Z,4.90
2024-01-01T07:40:01.068Z,4.93
2024-01-01T07:43:04.796Z,4.60
2024-01-01T07:46:10.795Z,4.83
2024-01-01T07:49:12.976Z,4.50
2024-01-01T07:52:14.851Z,4.40
2024-01-01T07:55:16.897Z,3.73
2024-01-01T07:58:18.922Z,3.80
2024-01-01T08:01:21.196Z,3.47
2024-01-01T08:04:22.951Z,3.40
2024-01-01T08:07:24.757Z,3.10
2024-01-01T08:10:26.616Z,3.30
2024-01-01T08:13:28.973Z,2.83
2024-01-01T08:16:34.765Z,3.27
2024-01-01T08:19:36.789Z,3.10
2024-01-01T08:22:38.698Z,3.00
2024-01-01T08:25:40.598Z,3.07
2024-01-01T08:28:42.529Z,2.83
2024-01-01T08:31:44.528Z,2.67
2024-01-01T08:34:46.491Z,2.83
2024-01-01T08:37:49.679Z,3.00
2024-01-01T08:40:52.783Z,2.93
2024-01-01T08:44:00.500Z,3.17
2024-01-01T08:47:02.380Z,3.70
2024-01-01T08:50:04.786Z,3.20
2024-01-01T08:53:06.920Z,3.17
2024-01-01T08:56:09.733Z,2.60
2024-01-01T08:59:14.366Z,2.63
2024-01-01T09:02:16.797Z,2.60
2024-01-01T09:05:20.145Z,2.73
2024-01-01T09:08:22.050Z,2.90
2024-01-01T09:11:23.874Z,2.90
2024-01-01T09:14:26.743Z,3.03
2024-01-01T09:17:28.820Z,2.80
2024-01-01T09:20:30.755Z,2.97
2024-01-01T09:23:33.112Z,2.80
2024-01-01T09:26:35.578Z,2.57
2024-01-01T09:29:37.573Z,2.60
2024-01-01T09:32:39.984Z,2.23
2024-01-01T09:36:03.324Z,2.30
2024-01-01T09:39:07.002Z,2.13
2024-01-01T09:42:08.912Z,2.63
2024-01-01T09:45:14.278Z,1.90
2024-01-01T09:48:16.526Z,2.00
2024-01-01T09:51:18.389Z,1.80
2024-01-01T09:54:20.423Z,2.00
2024-01-01T09:57:22.319Z,2.80
2024-01-01T10:00:24.630Z,3.40
2024-01-01T10:03:26.561Z,2.60
2024-01-01T10:06:28.430Z,3.10
2024-01-01T10:09:32.237Z,4.53
2024-01-01T10:12:34.161Z,2.80
2024-01-01T10:15:39.110Z,2.40
2024-01-01T10:18:41.005Z,2.27
2024-01-01T10:21:42.947Z,2.43
2024-01-01T10:24:45.051Z,2.73
2024-01-01T10:27:48.976Z,2.60
2024-01-01T10:30:50.992Z,2.30
2024-01-01T10:33:53.163Z,1.87
2024-01-01T10:36:55.230Z,2.67
2024-01-01T10:40:05.387Z,1.87
2024-01-01T10:43:08.493Z,1.93
2024-01-01T10:46:13.349Z,2.23
2024-01-01T10:49:26.039Z,1.70
2024-01-01T10:52:28.031Z,2.20
2024-01-01T10:55:36.965Z,2.00
2024-01-01T10:58:53.381Z,1.97
2024-01-01T11:01:56.281Z,2.20
2024-01-01T11:05:13.820Z,2.00
2024-01-01T11:08:27.154Z,3.20
2024-01-01T11:11:33.368Z,3.47
2024-01-01T11:14:39.036Z,2.43
2024-01-01T11:17:40.955Z,2.80
2024-01-01T11:20:48.907Z,2.40
2024-01-01T11:23:51.917Z,1.70
2024-01-01T11:26:54.373Z,2.10
2024-01-01T11:30:07.604Z,3.00
2024-01-01T11:33:09.898Z,1.90
2024-01-01T11:36:12.133Z,1.87
2024-01-01T11:39:14.081Z,2.90
2024-01-01T11:42:20.144Z,2.53
2024-01-01T11:45:22.025Z,1.80
2024-01-01T11:48:27.064Z,2.37
2024-01-01T11:52:07.386Z,1.77
2024-01-01T11:55:09.666Z,1.80
2024-01-01T11:58:12.944Z,1.70
2024-01-01T12:01:14.770Z,1.70
2024-01-01T12:04:17.174Z,1.50
2024-01-01T12:07:33.500Z,1.97
2024-01-01T12:10:35.254Z,1.93
2024-01-01T12:13:37.012Z,1.87
2024-01-01T12:16:38.994Z,2.00
2024-01-01T12:19:40.802Z,2.00
2024-01-01T12:22:43.048Z,2.37
2024-01-01T12:25:46.451Z,2.03
2024-01-01T12:29:05.640Z,1.90
2024-01-01T12:32:07.467Z,1.70
2024-01-01T12:35:09.473Z,2.10
2024-01-01T12:38:11.373Z,1.77
2024-01-01T12:41:18.520Z,1.63
2024-01-01T12:44:20.324Z,1.70
2024-01-01T12:47:22.306Z,1.60
2024-01-01T12:50:24.400Z,1.47
2024-01-01T12:53:26.666Z,1.93
2024-01-01T12:56:28.873Z,1.50
2024-01-01T12:59:30.711Z,2.00
2024-01-01T13:02:32.430Z,2.87
2024-01-01T13:05:34.363Z,2.03
2024-01-01T13:08:37.915Z,7.57
2024-01-01T13:11:39.640Z,3.37
2024-01-01T13:14:41.458Z,3.03
2024-01-01T13:17:46.019Z,3.00
2024-01-01T13:20:48.339Z,2.10
2024-01-01T13:23:50.351Z,2.17
2024-01-01T13:26:52.223Z,2.17
2024-01-01T13:29:53.986Z,2.97
2024-01-01T13:32:55.780Z,1.90
2024-01-01T13:35:57.564Z,1.90
2024-01-01T13:38:59.341Z,2.00
2024-01-01T13:42:01.265Z,1.90
2024-01-01T13:45:03.821Z,2.03
2024-01-01T13:48:06.600Z,1.80
2024-01-01T13:51:08.601Z,1.90
2024-01-01T13:54:10.400Z,2.00
2024-01-01T13:57:12.264Z,1.70
2024-01-01T14:00:15.790Z,1.70
2024-01-01T14:03:19.611Z,1.57
2024-01-01T14:06:21.519Z,1.80
2024-01-01T14:09:23.295Z,1.80
2024-01-01T14:12:25.259Z,1.77
2024-01-01T14:15:28.857Z,2.13
2024-01-01T14:18:30.861Z,1.70
2024-01-01T14:21:32.742Z,2.00
2024-01-01T14:24:34.618Z,2.70
2024-01-01T14:27:36.470Z,2.17
2024-01-01T14:30:38.597Z,2.40
2024-01-01T14:33:41.237Z,1.77
2024-01-01T14:36:43.138Z,2.27
2024-01-01T14:39:44.860Z,2.10
2024-01-01T14:42:47.240Z,2.33
2024-01-01T14:45:49.286Z,1.90
2024-01-01T14:48:51.183Z,1.90
2024-01-01T14:51:54.541Z,2.07
2024-01-01T14:54:56.785Z,2.90
2024-01-01T14:57:58.586Z,2.10
2024-01-01T15:01:01.106Z,2.07
2024-01-01T15:04:03.197Z,2.10
2024-01-01T15:07:05.193Z,1.87
2024-01-01T15:10:07.489Z,1.77
2024-01-01T15:13:09.556Z,2.37
2024-01-01T15:16:11.352Z,1.87
2024-01-01T15:19:13.261Z,1.90
2024-01-01T15:22:15.400Z,2.60
2024-01-01T15:25:18.550Z,3.70
2024-01-01T15:28:20.381Z,4.30
2024-01-01T15:31:22.218Z,7.30
2024-01-01T15:34:24.224Z,4.57
2024-01-01T15:37:26.051Z,5.53
2024-01-01T15:40:27.897Z,6.10
2024-01-01T15:43:29.703Z,7.20
2024-01-01T15:46:31.423Z,3.40
2024-01-01T15:49:33.716Z,2.40
2024-01-01T15:52:35.639Z,2.60
2024-01-01T15:55:37.408Z,2.17
2024-01-01T15:58:39.602Z,2.60
2024-01-01T16:01:41.473Z,2.23
2024-01-01T16:04:43.283Z,2.93
2024-01-01T16:07:45.194Z,2.33
2024-01-01T16:10:47.019Z,2.33
2024-01-01T16:13:49.814Z,2.00
2024-01-01T16:16:54.782Z,1.77
2024-01-01T16:19:58.481Z,2.40
2024-01-01T16:23:00.475Z,1.90
2024-01-01T16:26:02.327Z,2.33
2024-01-01T16:29:04.802Z,2.03
2024-01-01T16:32:06.689Z,2.50
2024-01-01T16:35:08.840Z,1.90
2024-01-01T16:38:11.001Z,1.90
2024-01-01T16:41:13.859Z,2.17
2024-01-01T16:44:15.699Z,2.20
2024-01-01T16:47:17.867Z,3.20
2024-01-01T16:50:19.934Z,2.17
2024-01-01T16:53:23.779Z,2.47
2024-01-01T16:56:26.921Z,3.30
2024-01-01T16:59:28.924Z,2.90
2024-01-01T17:02:31.115Z,2.40
2024-01-01T17:05:32.971Z,2.60
2024-01-01T17:08:34.809Z,2.77
2024-01-01T17:11:36.627Z,3.03
2024-01-01T17:14:38.407Z,2.73
2024-01-01T17:17:40.337Z,3.23
2024-01-01T17:20:42.162Z,3.13
2024-01-01T17:23:43.997Z,3.83
2024-01-01T17:26:45.807Z,4.10
2024-01-01T17:29:47.875Z,4.03
2024-01-01T17:32:49.808Z,5.70
2024-01-01T17:35:51.757Z,3.77
2024-01-01T17:38:56.187Z,3.70
2024-01-01T17:41:58.070Z,3.00
2024-01-01T17:44:59.873Z,6.10
2024-01-01T17:48:02.031Z,16.27
2024-01-01T17:51:05.592Z,31.50
2024-01-01T17:54:07.473Z,6.60
2024-01-01T17:57:09.184Z,5.73
2024-01-01T18:00:12.083Z,5.47
2024-01-01T18:03:13.979Z,5.60
2024-01-01T18:06:15.893Z,4.17
2024-01-01T18:09:17.905Z,4.73
2024-01-01T18:12:19.853Z,5.23
2024-01-01T18:15:21.905Z,5.53
2024-01-01T18:18:23.890Z,5.23
2024-01-01T18:21:25.769Z,6.13
2024-01-01T18:24:28.303Z,6.90
2024-01-01T18:27:30.139Z,5.60
2024-01-01T18:30:32.307Z,5.10
2024-01-01T18:33:35.155Z,5.00
2024-01-01T18:36:37.294Z,4.07
2024-01-01T18:39:39.060Z,4.20
2024-01-01T18:42:41.543Z,5.23
2024-01-01T18:45:43.303Z,5.17
2024-01-01T18:48:45.363Z,4.40
2024-01-01T18:51:47.366Z,4.57
2024-01-01T18:54:49.358Z,5.97
2024-01-01T18:57:51.098Z,6.73
2024-01-01T19:00:53.538Z,5.30
2024-01-01T19:04:01.285Z,5.97
2024-01-01T19:07:07.922Z,6.97
2024-01-01T19:10:10.004Z,4.10
2024-01-01T19:13:11.808Z,5.23
2024-01-01T19:16:17.552Z,4.23
2024-01-01T19:19:19.972Z,4.07
2024-01-01T19:22:21.800Z,3.87
2024-01-01T19:25:25.197Z,4.33
2024-01-01T19:28:27.045Z,3.40
2024-01-01T19:31:29.175Z,3.53
2024-01-01T19:34:31.175Z,3.57
2024-01-01T19:37:33.454Z,3.13
2024-01-01T19:40:35.180Z,3.67
2024-01-01T19:43:36.992Z,7.83
2024-01-01T19:46:38.917Z,10.33
2024-01-01T19:49:41.651Z,15.30
2024-01-01T19:52:43.839Z,10.27
2024-01-01T19:55:46.914Z,6.60
2024-01-01T19:58:48.766Z,9.13
2024-01-01T20:01:50.702Z,8.30
2024-01-01T20:04:52.509Z,16.67
2024-01-01T20:07:54.346Z,15.47
2024-01-01T20:10:56.158Z,11.47
2024-01-01T20:13:57.963Z,9.90
2024-01-01T20:16:59.826Z,4.73
2024-01-01T20:20:01.859Z,4.77
2024-01-01T20:23:04.410Z,7.27
2024-01-01T20:26:06.366Z,7.60
2024-01-01T20:29:08.212Z,4.57
2024-01-01T20:32:10.366Z,3.80
2024-01-01T20:35:12.617Z,3.27
2024-01-01T20:38:14.513Z,3.80
2024-01-01T20:41:16.404Z,7.03
2024-01-01T20:44:18.367Z,4.07
2024-01-01T20:47:20.200Z,4.10
2024-01-01T20:50:22.088Z,4.73
2024-01-01T20:53:24.436Z,4.77
2024-01-01T20:56:26.584Z,6.33
2024-01-01T20:59:29.205Z,5.13
2024-01-01T21:02:31.083Z,4.10
2024-01-01T21:05:32.981Z,4.30
2024-01-01T21:08:34.851Z,7.73
2024-01-01T21:11:36.680Z,5.80
2024-01-01T21:14:38.582Z,7.10
2024-01-01T21:17:43.188Z,7.40
2024-01-01T21:20:46.203Z,9.57
2024-01-01T21:23:47.983Z,11.20
2024-01-01T21:26:49.726Z,6.33
2024-01-01T21:29:51.890Z,6.50
2024-01-01T21:32:55.233Z,4.13
2024-01-01T21:35:57.074Z,4.80
2024-01-01T21:38:58.856Z,4.30
2024-01-01T21:42:01.392Z,6.83
2024-01-01T21:45:03.769Z,5.93
2024-01-01T21:48:05.892Z,5.63
2024-01-01T21:51:10.511Z,5.93
2024-01-01T21:54:12.506Z,4.50
2024-01-01T21:57:14.610Z,5.20
2024-01-01T22:00:18.332Z,5.43
2024-01-01T22:03:20.194Z,3.23
2024-01-01T22:06:23.502Z,5.60
2024-01-01T22:09:25.404Z,3.37
2024-01-01T22:12:27.316Z,3.17
2024-01-01T22:15:29.093Z,3.50
2024-01-01T22:18:31.303Z,3.53
2024-01-01T22:21:33.163Z,3.40
2024-01-01T22:24:34.929Z,2.77
2024-01-01T22:27:36.682Z,3.00
2024-01-01T22:30:38.436Z,2.53
2024-01-01T22:33:40.235Z,2.27
2024-01-01T22:36:42.873Z,2.50
2024-01-01T22:39:44.879Z,2.93
2024-01-01T22:42:46.674Z,2.70
2024-01-01T22:45:48.464Z,2.67
2024-01-01T22:48:50.469Z,2.10
2024-01-01T22:51:52.349Z,2.60
2024-01-01T22:54:54.168Z,2.80
2024-01-01T22:57:55.896Z,2.87
2024-01-01T23:00:57.753Z,2.50
2024-01-01T23:03:59.608Z,2.53
2024-01-01T23:07:01.390Z,2.40
2024-01-01T23:10:03.359Z,1.90
2024-01-01T23:13:05.585Z,2.00
2024-01-01T23:16:07.674Z,1.77
2024-01-01T23:19:09.514Z,1.77
2024-01-01T23:22:11.399Z,2.17
2024-01-01T23:25:13.187Z,2.10
2024-01-01T23:28:14.981Z,2.00
2024-01-01T23:31:17.025Z,1.90
2024-01-01T23:34:18.821Z,2.30
2024-01-01T23:37:20.731Z,2.03
2024-01-01T23:40:22.590Z,2.50
2024-01-01T23:43:24.397Z,2.20
2024-01-01T23:46:26.221Z,1.93
2024-01-01T23:49:28.026Z,2.20
2024-01-01T23:52:29.820Z,2.03
2024-01-01T23:55:31.617Z,2.30
2024-01-01T23:58:34.150Z,1.93
